createdAt,value
2022-08-26T00:02:07.606Z,22.61
2022-08-26T00:05:14.728Z,22.59
2022-08-26T00:08:19.752Z,22.58
2022-08-26T00:11:26.873Z,22.57
2022-08-26T00:14:31.068Z,22.57
2022-08-26T00:17:37.055Z,22.59
2022-08-26T00:20:43.886Z,22.58
2022-08-26T00:23:47.949Z,22.47
2022-08-26T00:26:51.840Z,22.61
2022-08-26T00:29:55.468Z,22.64
2022-08-26T00:32:59.540Z,22.64
2022-08-26T00:36:03.796Z,22.61
2022-08-26T00:39:08.708Z,22.55
2022-08-26T00:42:13.760Z,22.54
2022-08-26T00:45:17.507Z,22.53
2022-08-26T00:48:26.613Z,22.49
2022-08-26T00:51:37.028Z,22.42
2022-08-26T00:54:47.410Z,22.35
2022-08-26T00:57:51.199Z,22.24
2022-08-26T01:00:55.174Z,22.23
2022-08-26T01:04:00.026Z,22.16
2022-08-26T01:07:04.686Z,22.11
2022-08-26T01:10:11.450Z,22.07
2022-08-26T01:13:14.725Z,22.05
2022-08-26T01:16:18.050Z,22.05
2022-08-26T01:19:30.039Z,21.96
2022-08-26T01:22:52.366Z,21.97
2022-08-26T01:29:09.933Z,21.88
2022-08-26T01:32:17.570Z,21.86
2022-08-26T01:35:21.888Z,21.80
2022-08-26T01:38:27.813Z,21.76
2022-08-26T01:41:35.875Z,21.63
2022-08-26T01:44:46.056Z,21.65
2022-08-26T01:47:57.037Z,21.62
2022-08-26T01:51:01.925Z,21.57
2022-08-26T01:54:08.371Z,21.55
2022-08-26T01:57:17.460Z,21.50
2022-08-26T02:00:23.726Z,21.48
2022-08-26T02:03:27.961Z,21.46
2022-08-26T02:06:32.497Z,21.45
2022-08-26T02:09:41.498Z,21.43
2022-08-26T02:12:45.171Z,21.41
2022-08-26T02:15:48.981Z,21.42
2022-08-26T02:18:54.464Z,21.46
2022-08-26T02:22:01.745Z,21.48
2022-08-26T02:25:52.917Z,21.45
2022-08-26T02:29:04.499Z,21.42
2022-08-26T02:32:09.451Z,21.40
2022-08-26T02:35:18.238Z,21.33
2022-08-26T02:38:24.496Z,21.29
2022-08-26T02:41:28.900Z,21.28
2022-08-26T02:44:32.995Z,21.07
2022-08-26T02:47:37.584Z,21.29
2022-08-26T02:50:41.455Z,21.25
2022-08-26T02:53:45.604Z,21.22
2022-08-26T02:56:51.739Z,21.20
2022-08-26T02:59:55.354Z,21.15
2022-08-26T03:02:59.573Z,20.87
2022-08-26T03:06:04.831Z,21.14
2022-08-26T03:09:09.116Z,21.10
2022-08-26T03:12:13.855Z,21.05
2022-08-26T03:15:21.385Z,21.06
2022-08-26T03:18:24.846Z,21.01
2022-08-26T03:21:28.790Z,21.00
2022-08-26T03:24:32.700Z,20.88
2022-08-26T03:27:35.857Z,20.94
2022-08-26T03:30:44.745Z,20.82
2022-08-26T03:33:49.948Z,20.85
2022-08-26T03:36:55.129Z,20.87
2022-08-26T03:40:01.775Z,20.87
2022-08-26T03:43:06.381Z,20.87
2022-08-26T03:46:12.696Z,20.86
2022-08-26T03:49:20.743Z,20.84
2022-08-26T03:52:24.757Z,20.84
2022-08-26T03:55:32.542Z,20.86
2022-08-26T03:58:37.975Z,20.82
2022-08-26T04:01:41.921Z,20.80
2022-08-26T04:04:47.040Z,20.74
2022-08-26T04:07:51.852Z,20.67
2022-08-26T04:10:55.142Z,20.66
2022-08-26T04:14:01.224Z,20.63
2022-08-26T04:17:06.371Z,20.55
2022-08-26T04:20:19.253Z,20.58
2022-08-26T04:23:34.602Z,20.57
2022-08-26T04:26:51.670Z,20.55
2022-08-26T04:29:55.529Z,20.58
2022-08-26T04:32:59.421Z,20.59
2022-08-26T04:36:04.367Z,20.55
2022-08-26T04:39:09.491Z,20.66
2022-08-26T04:42:13.883Z,20.70
2022-08-26T04:45:17.423Z,20.76
2022-08-26T04:48:20.625Z,20.78
2022-08-26T04:51:30.312Z,20.79
2022-08-26T04:54:34.344Z,20.80
2022-08-26T04:57:37.666Z,20.83
2022-08-26T05:00:45.141Z,20.92
2022-08-26T05:03:49.875Z,21.02
2022-08-26T05:07:02.350Z,21.08
2022-08-26T05:10:08.681Z,21.12
2022-08-26T05:13:15.571Z,21.20
2022-08-26T05:16:20.483Z,21.25
2022-08-26T05:19:23.841Z,21.34
2022-08-26T05:22:27.668Z,21.39
2022-08-26T05:25:42.791Z,21.42
2022-08-26T05:28:46.782Z,21.48
2022-08-26T05:31:52.514Z,21.51
2022-08-26T05:34:58.623Z,21.63
2022-08-26T05:38:02.476Z,21.68
2022-08-26T05:41:34.339Z,21.76
2022-08-26T05:44:53.729Z,21.77
2022-08-26T05:47:59.981Z,21.87
2022-08-26T05:51:09.017Z,21.90
2022-08-26T05:54:14.534Z,22.00
2022-08-26T05:57:25.838Z,22.11
2022-08-26T06:00:30.957Z,22.19
2022-08-26T06:03:36.212Z,22.30
2022-08-26T06:06:41.728Z,22.40
2022-08-26T06:09:47.186Z,22.54
2022-08-26T06:12:50.199Z,22.62
2022-08-26T06:15:55.393Z,22.74
2022-08-26T06:18:59.092Z,22.88
2022-08-26T06:22:23.889Z,23.07
2022-08-26T06:25:38.453Z,23.19
2022-08-26T06:28:45.613Z,23.32
2022-08-26T06:31:49.580Z,23.44
2022-08-26T06:34:54.919Z,23.54
2022-08-26T06:37:58.234Z,23.68
2022-08-26T06:41:01.567Z,23.80
2022-08-26T06:44:08.030Z,23.88
2022-08-26T06:47:12.399Z,24.01
2022-08-26T06:50:15.250Z,24.13
2022-08-26T06:53:18.314Z,24.23
2022-08-26T06:56:24.515Z,24.33
2022-08-26T06:59:29.578Z,24.54
2022-08-26T07:02:33.007Z,24.70
2022-08-26T07:05:36.127Z,24.91
2022-08-26T07:08:39.301Z,24.86
2022-08-26T07:11:43.342Z,25.28
2022-08-26T07:14:48.160Z,25.50
2022-08-26T07:17:51.434Z,25.59
2022-08-26T07:20:54.610Z,25.81
2022-08-26T07:24:01.376Z,26.00
2022-08-26T07:27:08.761Z,26.20
2022-08-26T07:30:14.711Z,26.36
2022-08-26T07:33:19.125Z,26.49
2022-08-26T07:36:25.214Z,26.65
2022-08-26T07:39:31.661Z,26.78
2022-08-26T07:42:35.887Z,26.94
2022-08-26T07:45:40.422Z,26.93
2022-08-26T07:48:49.727Z,27.14
2022-08-26T07:51:55.969Z,27.36
2022-08-26T07:55:04.935Z,27.54
2022-08-26T07:58:08.145Z,27.67
2022-08-26T08:01:13.606Z,27.89
2022-08-26T08:04:26.070Z,28.11
2022-08-26T08:07:44.276Z,28.27
2022-08-26T08:10:50.269Z,28.43
2022-08-26T08:13:56.562Z,28.66
2022-08-26T08:17:00.958Z,28.67
2022-08-26T08:20:06.137Z,28.75
2022-08-26T08:23:10.845Z,28.64
2022-08-26T08:26:14.469Z,29.02
2022-08-26T08:29:20.867Z,29.29
2022-08-26T08:32:24.343Z,29.41
2022-08-26T08:35:28.497Z,29.65
2022-08-26T08:38:34.005Z,29.82
2022-08-26T08:41:50.762Z,30.02
2022-08-26T08:44:57.996Z,29.89
2022-08-26T08:48:04.365Z,30.20
2022-08-26T08:51:16.868Z,30.43
2022-08-26T08:54:22.065Z,30.72
2022-08-26T08:57:53.644Z,30.97
2022-08-26T09:01:04.776Z,31.15
2022-08-26T09:04:18.095Z,31.41
2022-08-26T09:07:28.307Z,31.17
2022-08-26T09:10:45.419Z,31.44
2022-08-26T09:13:55.439Z,31.77
2022-08-26T09:17:08.773Z,31.96
2022-08-26T09:20:31.232Z,32.24
2022-08-26T09:23:37.007Z,31.89
2022-08-26T09:26:41.452Z,32.13
2022-08-26T09:29:45.756Z,32.49
2022-08-26T09:33:10.850Z,32.63
2022-08-26T09:36:15.834Z,33.19
2022-08-26T09:39:38.163Z,33.21
2022-08-26T09:42:40.977Z,33.09
2022-08-26T09:45:59.089Z,32.92
2022-08-26T09:49:29.840Z,33.14
2022-08-26T09:52:37.000Z,33.58
2022-08-26T09:55:43.302Z,33.95
2022-08-26T09:58:47.840Z,34.05
2022-08-26T10:01:51.506Z,34.38
2022-08-26T10:04:59.664Z,34.51
2022-08-26T10:08:39.271Z,34.85
2022-08-26T10:11:54.594Z,34.75
2022-08-26T10:15:03.034Z,35.14
2022-08-26T10:18:16.204Z,34.98
2022-08-26T10:21:26.149Z,35.44
2022-08-26T10:24:39.972Z,35.65
2022-08-26T10:28:02.417Z,35.81
2022-08-26T10:31:14.764Z,36.00
2022-08-26T10:34:21.157Z,36.34
2022-08-26T10:37:33.611Z,36.32
2022-08-26T10:40:46.404Z,36.35
2022-08-26T10:43:57.256Z,36.58
2022-08-26T10:47:10.812Z,36.13
2022-08-26T10:50:18.953Z,36.65
2022-08-26T10:53:51.731Z,36.70
2022-08-26T10:57:02.882Z,36.31
2022-08-26T11:01:10.590Z,36.35
2022-08-26T11:04:34.925Z,36.72
2022-08-26T11:07:47.789Z,37.05
2022-08-26T11:10:59.405Z,37.38
2022-08-26T11:14:06.015Z,37.47
2022-08-26T11:17:11.942Z,37.14
2022-08-26T11:20:33.427Z,37.37
2022-08-26T11:23:44.361Z,37.33
2022-08-26T11:26:55.953Z,37.49
2022-08-26T11:30:04.535Z,37.46
2022-08-26T11:33:09.908Z,37.32
2022-08-26T11:36:38.609Z,37.44
2022-08-26T11:39:56.962Z,37.62
2022-08-26T11:43:07.328Z,37.89
2022-08-26T11:46:12.960Z,38.00
2022-08-26T11:49:17.953Z,37.92
2022-08-26T11:52:22.616Z,38.01
2022-08-26T11:55:26.194Z,38.41
2022-08-26T11:58:30.295Z,38.42
2022-08-26T12:01:39.300Z,38.22
2022-08-26T12:04:46.588Z,38.11
2022-08-26T12:07:50.978Z,37.94
2022-08-26T12:11:09.399Z,37.68
2022-08-26T12:14:21.749Z,37.70
2022-08-26T12:17:28.340Z,37.94
2022-08-26T12:20:46.799Z,38.06
2022-08-26T12:23:54.701Z,37.15
2022-08-26T12:27:18.411Z,37.22
2022-08-26T12:30:26.296Z,37.22
2022-08-26T12:33:31.040Z,37.47
2022-08-26T12:36:47.305Z,37.29
2022-08-26T12:39:50.249Z,37.37
2022-08-26T12:42:53.720Z,37.11
2022-08-26T12:46:00.005Z,37.09
2022-08-26T12:49:04.697Z,37.27
2022-08-26T12:52:30.354Z,37.14
2022-08-26T12:55:33.692Z,37.32
2022-08-26T12:58:38.466Z,37.41
2022-08-26T13:01:44.770Z,37.53
2022-08-26T13:04:47.860Z,37.57
2022-08-26T13:08:17.341Z,37.58
2022-08-26T13:11:25.495Z,37.37
2022-08-26T13:14:29.065Z,37.09
2022-08-26T13:17:33.662Z,37.25
2022-08-26T13:20:44.173Z,37.25
2022-08-26T13:23:49.072Z,37.06
2022-08-26T13:26:53.200Z,37.03
2022-08-26T13:29:57.822Z,36.99
2022-08-26T13:33:04.008Z,36.64
2022-08-26T13:36:07.247Z,36.62
2022-08-26T13:39:12.634Z,36.50
2022-08-26T13:42:16.278Z,36.62
2022-08-26T13:45:19.989Z,36.60
2022-08-26T13:48:25.318Z,36.41
2022-08-26T13:51:29.682Z,35.97
2022-08-26T13:54:34.598Z,36.15
2022-08-26T13:57:38.878Z,36.12
2022-08-26T14:00:42.396Z,36.02
2022-08-26T14:03:46.541Z,36.17
2022-08-26T14:06:49.689Z,35.89
2022-08-26T14:09:53.472Z,35.95
2022-08-26T14:12:58.496Z,35.95
2022-08-26T14:16:03.526Z,35.86
2022-08-26T14:19:08.743Z,35.66
2022-08-26T14:22:12.822Z,35.66
2022-08-26T14:25:17.977Z,35.59
2022-08-26T14:28:22.082Z,35.43
2022-08-26T14:31:28.304Z,35.33
2022-08-26T14:34:32.532Z,35.09
2022-08-26T14:37:37.465Z,35.02
2022-08-26T14:40:45.706Z,34.92
2022-08-26T14:43:58.726Z,34.64
2022-08-26T14:47:04.655Z,34.50
2022-08-26T14:50:10.384Z,34.11
2022-08-26T14:53:35.623Z,34.01
2022-08-26T14:56:51.911Z,33.83
2022-08-26T14:59:59.383Z,33.73
2022-08-26T15:03:06.803Z,33.44
2022-08-26T15:06:16.949Z,33.25
2022-08-26T15:09:21.064Z,33.05
2022-08-26T15:12:25.484Z,33.02
2022-08-26T15:15:29.847Z,33.02
2022-08-26T15:18:33.668Z,32.94
2022-08-26T15:21:40.201Z,32.78
2022-08-26T15:24:43.927Z,32.67
2022-08-26T15:27:47.755Z,32.52
2022-08-26T15:30:51.504Z,32.36
2022-08-26T15:33:57.347Z,32.27
2022-08-26T15:37:01.809Z,32.17
2022-08-26T15:40:05.311Z,32.20
2022-08-26T15:43:25.763Z,31.97
2022-08-26T15:46:33.610Z,31.92
2022-08-26T15:49:36.960Z,31.81
2022-08-26T15:52:40.782Z,31.58
2022-08-26T15:55:45.840Z,31.36
2022-08-26T15:58:49.910Z,31.39
2022-08-26T16:01:53.229Z,31.28
2022-08-26T16:04:56.949Z,31.14
2022-08-26T16:08:03.572Z,31.08
2022-08-26T16:11:06.855Z,31.07
2022-08-26T16:14:09.540Z,30.94
2022-08-26T16:17:12.799Z,30.90
2022-08-26T16:20:17.672Z,30.83
2022-08-26T16:23:22.929Z,30.69
2022-08-26T16:26:29.979Z,30.70
2022-08-26T16:29:33.092Z,30.60
2022-08-26T16:32:36.268Z,30.52
2022-08-26T16:35:40.093Z,30.34
2022-08-26T16:38:50.321Z,30.33
2022-08-26T16:41:55.122Z,30.27
2022-08-26T16:44:59.542Z,30.17
2022-08-26T16:48:03.985Z,30.08
2022-08-26T16:51:13.698Z,29.83
2022-08-26T16:54:17.532Z,29.82
2022-08-26T16:57:21.203Z,29.70
2022-08-26T17:00:28.170Z,29.55
2022-08-26T17:03:30.735Z,29.41
2022-08-26T17:06:34.346Z,29.27
2022-08-26T17:09:37.545Z,29.17
2022-08-26T17:12:45.375Z,29.02
2022-08-26T17:15:54.157Z,28.91
2022-08-26T17:19:02.631Z,28.75
2022-08-26T17:22:05.734Z,28.71
2022-08-26T17:25:22.457Z,28.55
2022-08-26T17:28:25.707Z,28.53
2022-08-26T17:31:28.700Z,28.45
2022-08-26T17:34:31.364Z,28.35
2022-08-26T17:37:34.905Z,28.26
2022-08-26T17:40:43.019Z,28.28
2022-08-26T17:43:46.530Z,28.24
2022-08-26T17:46:51.157Z,28.14
2022-08-26T17:49:55.771Z,28.06
2022-08-26T17:52:59.784Z,27.85
2022-08-26T17:56:08.846Z,27.81
2022-08-26T17:59:12.404Z,27.60
2022-08-26T18:02:16.156Z,27.38
2022-08-26T18:05:20.066Z,27.32
2022-08-26T18:08:24.130Z,27.08
2022-08-26T18:11:29.977Z,27.02
2022-08-26T18:14:33.687Z,26.94
2022-08-26T18:17:39.223Z,26.96
2022-08-26T18:20:43.719Z,26.86
2022-08-26T18:23:49.824Z,26.76
2022-08-26T18:26:52.488Z,26.71
2022-08-26T18:29:56.999Z,26.61
2022-08-26T18:33:00.394Z,26.54
2022-08-26T18:36:05.359Z,26.40
2022-08-26T18:39:09.069Z,26.38
2022-08-26T18:42:12.947Z,26.34
2022-08-26T18:45:16.539Z,26.25
2022-08-26T18:48:20.881Z,26.16
2022-08-26T18:51:31.814Z,26.14
2022-08-26T18:54:36.829Z,26.09
2022-08-26T18:57:39.724Z,26.07
2022-08-26T19:00:43.588Z,26.02
2022-08-26T19:03:46.949Z,25.85
2022-08-26T19:06:52.130Z,25.83
2022-08-26T19:09:57.518Z,25.77
2022-08-26T19:13:02.507Z,25.72
2022-08-26T19:16:05.789Z,25.68
2022-08-26T19:19:09.706Z,25.66
2022-08-26T19:22:14.012Z,25.60
2022-08-26T19:25:17.489Z,25.54
2022-08-26T19:28:21.669Z,25.52
2022-08-26T19:31:25.326Z,25.43
2022-08-26T19:34:28.726Z,25.46
2022-08-26T19:37:31.785Z,25.46
2022-08-26T19:40:35.515Z,25.48
2022-08-26T19:43:38.730Z,25.48
2022-08-26T19:46:44.143Z,25.46
2022-08-26T19:49:47.387Z,25.49
2022-08-26T19:52:50.358Z,25.75
2022-08-26T19:55:53.965Z,25.83
2022-08-26T19:58:57.128Z,25.88
2022-08-26T20:02:01.102Z,25.86
2022-08-26T20:05:06.743Z,25.90
2022-08-26T20:08:09.674Z,25.92
2022-08-26T20:11:25.238Z,25.91
2022-08-26T20:14:28.756Z,25.90
2022-08-26T20:17:32.990Z,25.87
2022-08-26T20:20:54.941Z,25.78
2022-08-26T20:24:08.406Z,25.64
2022-08-26T20:27:11.558Z,25.54
2022-08-26T20:30:15.115Z,25.41
2022-08-26T20:33:20.109Z,25.34
2022-08-26T20:36:26.833Z,25.28
2022-08-26T20:39:29.868Z,25.22
2022-08-26T20:42:33.234Z,25.27
2022-08-26T20:45:36.585Z,25.21
2022-08-26T20:48:40.666Z,25.15
2022-08-26T20:51:43.644Z,25.12
2022-08-26T20:54:47.523Z,25.04
2022-08-26T20:57:50.203Z,25.08
2022-08-26T21:00:54.877Z,25.07
2022-08-26T21:03:58.078Z,25.01
2022-08-26T21:07:01.926Z,24.97
2022-08-26T21:10:05.714Z,24.90
2022-08-26T21:13:09.003Z,24.84
2022-08-26T21:16:13.256Z,24.77
2022-08-26T21:19:18.547Z,24.71
2022-08-26T21:22:21.391Z,24.73
2022-08-26T21:25:24.807Z,24.67
2022-08-26T21:28:29.053Z,24.63
2022-08-26T21:31:33.247Z,24.55
2022-08-26T21:34:36.133Z,24.53
2022-08-26T21:37:39.861Z,24.50
2022-08-26T21:40:44.374Z,24.45
2022-08-26T21:43:49.602Z,24.49
2022-08-26T21:46:53.842Z,24.46
2022-08-26T21:49:56.995Z,24.41
2022-08-26T21:53:01.500Z,24.39
2022-08-26T21:56:11.809Z,24.38
2022-08-26T21:59:18.940Z,24.38
2022-08-26T22:02:24.185Z,24.34
2022-08-26T22:05:28.859Z,24.26
2022-08-26T22:08:32.343Z,24.12
2022-08-26T22:11:35.553Z,24.18
2022-08-26T22:14:39.922Z,24.22
2022-08-26T22:17:44.693Z,24.17
2022-08-26T22:20:47.540Z,24.14
2022-08-26T22:23:51.960Z,24.10
2022-08-26T22:27:00.534Z,24.04
2022-08-26T22:30:04.832Z,24.01
2022-08-26T22:33:07.593Z,23.97
2022-08-26T22:36:19.757Z,23.94
2022-08-26T22:39:26.892Z,23.90
2022-08-26T22:42:30.848Z,23.88
2022-08-26T22:45:33.913Z,23.81
2022-08-26T22:48:38.314Z,23.78
2022-08-26T22:51:41.092Z,23.73
2022-08-26T22:54:45.358Z,23.71
2022-08-26T22:57:48.445Z,23.65
2022-08-26T23:00:52.166Z,23.60
2022-08-26T23:03:59.450Z,23.52
2022-08-26T23:07:03.431Z,23.46
2022-08-26T23:10:08.518Z,23.39
2022-08-26T23:13:12.470Z,23.22
2022-08-26T23:16:15.508Z,23.29
2022-08-26T23:19:21.130Z,23.22
2022-08-26T23:22:24.475Z,23.17
2022-08-26T23:25:29.634Z,23.03
2022-08-26T23:28:35.230Z,22.99
2022-08-26T23:31:40.104Z,22.92
2022-08-26T23:35:00.505Z,22.91
2022-08-26T23:38:04.964Z,22.89
2022-08-26T23:41:08.691Z,22.91
2022-08-26T23:44:12.765Z,22.81
2022-08-26T23:47:16.304Z,22.73
2022-08-26T23:50:21.822Z,22.52
2022-08-26T23:53:25.255Z,22.68
2022-08-26T23:56:29.239Z,22.62
2022-08-26T23:59:32.720Z,22.54
